sensor_id;sensor_type;location;lat;lon;timestamp;temperature;humidity
5711;DHT22;61291;52.524;13.422;2023-03-04T00:01:31;2.30;99.90
5711;DHT22;61291;52.524;13.422;2023-03-04T00:03:57;2.30;99.90
5711;DHT22;61291;52.524;13.422;2023-03-04T00:06:22;2.30;99.90
5711;DHT22;61291;52.524;13.422;2023-03-04T00:08:48;2.50;99.90
5711;DHT22;61291;52.524;13.422;2023-03-04T00:11:13;2.60;99.90
5711;DHT22;61291;52.524;13.422;2023-03-04T00:13:39;2.50;99.90
5711;DHT22;61291;52.524;13.422;2023-03-04T00:16:05;2.50;99.90
5711;DHT22;61291;52.524;13.422;2023-03-04T00:18:30;2.70;99.90
5711;DHT22;61291;52.524;13.422;2023-03-04T00:20:56;2.90;99.90
5711;DHT22;61291;52.524;13.422;2023-03-04T00:23:21;3.10;99.90
5711;DHT22;61291;52.524;13.422;2023-03-04T00:25:47;3.20;99.90
5711;DHT22;61291;52.524;13.422;2023-03-04T00:28:12;3.30;99.90
5711;DHT22;61291;52.524;13.422;2023-03-04T00:30:38;3.50;99.90
5711;DHT22;61291;52.524;13.422;2023-03-04T00:33:03;3.60;99.90
5711;DHT22;61291;52.524;13.422;2023-03-04T00:35:29;3.70;99.90
5711;DHT22;61291;52.524;13.422;2023-03-04T00:37:54;3.80;99.90
5711;DHT22;61291;52.524;13.422;2023-03-04T00:40:19;3.90;99.90
5711;DHT22;61291;52.524;13.422;2023-03-04T00:42:45;4.00;99.90
5711;DHT22;61291;52.524;13.422;2023-03-04T00:45:11;4.00;99.90
5711;DHT22;61291;52.524;13.422;2023-03-04T00:47:36;4.00;99.90
5711;DHT22;61291;52.524;13.422;2023-03-04T00:50:02;4.10;99.90
5711;DHT22;61291;52.524;13.422;2023-03-04T00:52:31;4.10;99.90
5711;DHT22;61291;52.524;13.422;2023-03-04T00:54:56;4.20;99.90
5711;DHT22;61291;52.524;13.422;2023-03-04T00:57:22;4.20;99.90
5711;DHT22;61291;52.524;13.422;2023-03-04T00:59:47;4.20;99.90
5711;DHT22;61291;52.524;13.422;2023-03-04T01:02:13;4.20;99.90
5711;DHT22;61291;52.524;13.422;2023-03-04T01:04:38;4.20;99.90
5711;DHT22;61291;52.524;13.422;2023-03-04T01:07:06;4.20;99.90
5711;DHT22;61291;52.524;13.422;2023-03-04T01:09:31;4.20;99.90
5711;DHT22;61291;52.524;13.422;2023-03-04T01:11:57;4.30;99.90
5711;DHT22;61291;52.524;13.422;2023-03-04T01:14:22;4.30;99.90
5711;DHT22;61291;52.524;13.422;2023-03-04T01:16:48;4.30;99.90
5711;DHT22;61291;52.524;13.422;2023-03-04T01:19:14;4.30;99.90
5711;DHT22;61291;52.524;13.422;2023-03-04T01:21:40;4.30;99.90
5711;DHT22;61291;52.524;13.422;2023-03-04T01:24:05;4.40;99.90
5711;DHT22;61291;52.524;13.422;2023-03-04T01:26:30;4.40;99.90
5711;DHT22;61291;52.524;13.422;2023-03-04T01:28:56;4.40;99.90
5711;DHT22;61291;52.524;13.422;2023-03-04T01:31:21;4.40;99.90
5711;DHT22;61291;52.524;13.422;2023-03-04T01:33:47;4.40;99.90
5711;DHT22;61291;52.524;13.422;2023-03-04T01:36:12;4.40;99.90
5711;DHT22;61291;52.524;13.422;2023-03-04T01:38:38;4.40;99.90
5711;DHT22;61291;52.524;13.422;2023-03-04T01:41:04;4.40;99.90
5711;DHT22;61291;52.524;13.422;2023-03-04T01:43:30;4.30;99.90
5711;DHT22;61291;52.524;13.422;2023-03-04T01:45:56;4.40;99.90
5711;DHT22;61291;52.524;13.422;2023-03-04T01:48:28;4.40;99.90
5711;DHT22;61291;52.524;13.422;2023-03-04T01:50:55;4.40;99.90
5711;DHT22;61291;52.524;13.422;2023-03-04T01:53:26;4.40;99.90
5711;DHT22;61291;52.524;13.422;2023-03-04T01:55:54;4.40;99.90
5711;DHT22;61291;52.524;13.422;2023-03-04T01:58:20;4.40;99.90
5711;DHT22;61291;52.524;13.422;2023-03-04T02:00:48;4.50;99.90
5711;DHT22;61291;52.524;13.422;2023-03-04T02:03:16;4.50;99.90
5711;DHT22;61291;52.524;13.422;2023-03-04T02:05:47;4.60;99.90
5711;DHT22;61291;52.524;13.422;2023-03-04T02:08:14;4.60;99.90
5711;DHT22;61291;52.524;13.422;2023-03-04T02:10:41;4.60;99.90
5711;DHT22;61291;52.524;13.422;2023-03-04T02:13:07;4.70;99.90
5711;DHT22;61291;52.524;13.422;2023-03-04T02:15:33;4.80;99.90
5711;DHT22;61291;52.524;13.422;2023-03-04T02:17:59;4.80;99.90
5711;DHT22;61291;52.524;13.422;2023-03-04T02:20:33;4.80;99.90
5711;DHT22;61291;52.524;13.422;2023-03-04T02:23:05;4.90;99.90
5711;DHT22;61291;52.524;13.422;2023-03-04T02:25:50;4.90;99.90
5711;DHT22;61291;52.524;13.422;2023-03-04T02:28:17;4.90;99.90
5711;DHT22;61291;52.524;13.422;2023-03-04T02:30:43;4.90;99.90
5711;DHT22;61291;52.524;13.422;2023-03-04T02:33:18;5.00;99.90
5711;DHT22;61291;52.524;13.422;2023-03-04T02:35:44;5.00;99.90
5711;DHT22;61291;52.524;13.422;2023-03-04T02:38:11;5.00;99.90
5711;DHT22;61291;52.524;13.422;2023-03-04T02:40:38;5.00;99.90
5711;DHT22;61291;52.524;13.422;2023-03-04T02:43:05;5.10;99.90
5711;DHT22;61291;52.524;13.422;2023-03-04T02:45:40;5.10;99.90
5711;DHT22;61291;52.524;13.422;2023-03-04T02:48:07;5.10;99.90
5711;DHT22;61291;52.524;13.422;2023-03-04T02:50:35;5.10;99.90
5711;DHT22;61291;52.524;13.422;2023-03-04T02:53:02;5.10;99.90
5711;DHT22;61291;52.524;13.422;2023-03-04T02:55:27;5.10;99.90
5711;DHT22;61291;52.524;13.422;2023-03-04T02:57:53;5.10;99.90
5711;DHT22;61291;52.524;13.422;2023-03-04T03:00:19;5.10;99.90
5711;DHT22;61291;52.524;13.422;2023-03-04T03:02:45;5.20;99.90
5711;DHT22;61291;52.524;13.422;2023-03-04T03:05:11;5.30;99.90
5711;DHT22;61291;52.524;13.422;2023-03-04T03:07:36;5.30;99.90
5711;DHT22;61291;52.524;13.422;2023-03-04T03:10:03;5.30;99.90
5711;DHT22;61291;52.524;13.422;2023-03-04T03:12:28;5.30;99.90
5711;DHT22;61291;52.524;13.422;2023-03-04T03:14:54;5.40;99.90
5711;DHT22;61291;52.524;13.422;2023-03-04T03:17:19;5.40;99.90
5711;DHT22;61291;52.524;13.422;2023-03-04T03:19:44;5.40;99.90
5711;DHT22;61291;52.524;13.422;2023-03-04T03:22:10;5.30;99.90
5711;DHT22;61291;52.524;13.422;2023-03-04T03:24:35;5.30;99.90
5711;DHT22;61291;52.524;13.422;2023-03-04T03:27:01;5.40;99.90
5711;DHT22;61291;52.524;13.422;2023-03-04T03:29:27;5.40;99.90
5711;DHT22;61291;52.524;13.422;2023-03-04T03:31:52;5.40;99.90
5711;DHT22;61291;52.524;13.422;2023-03-04T03:34:18;5.40;99.90
5711;DHT22;61291;52.524;13.422;2023-03-04T03:36:43;5.40;99.90
5711;DHT22;61291;52.524;13.422;2023-03-04T03:39:09;5.40;99.90
5711;DHT22;61291;52.524;13.422;2023-03-04T03:41:35;5.40;99.90
5711;DHT22;61291;52.524;13.422;2023-03-04T03:44:00;5.40;99.90
5711;DHT22;61291;52.524;13.422;2023-03-04T03:46:26;5.50;99.90
5711;DHT22;61291;52.524;13.422;2023-03-04T03:48:51;5.50;99.90
5711;DHT22;61291;52.524;13.422;2023-03-04T03:51:17;5.50;99.90
5711;DHT22;61291;52.524;13.422;2023-03-04T03:53:42;5.50;99.90
5711;DHT22;61291;52.524;13.422;2023-03-04T03:56:08;5.50;99.90
5711;DHT22;61291;52.524;13.422;2023-03-04T03:58:33;5.60;99.90
5711;DHT22;61291;52.524;13.422;2023-03-04T04:00:59;5.60;99.90
5711;DHT22;61291;52.524;13.422;2023-03-04T04:03:24;5.60;99.90
5711;DHT22;61291;52.524;13.422;2023-03-04T04:05:50;5.60;99.90
5711;DHT22;61291;52.524;13.422;2023-03-04T04:08:18;5.60;99.90
5711;DHT22;61291;52.524;13.422;2023-03-04T04:10:44;5.70;99.90
5711;DHT22;61291;52.524;13.422;2023-03-04T04:13:10;5.60;99.90
5711;DHT22;61291;52.524;13.422;2023-03-04T04:15:36;5.70;99.90
5711;DHT22;61291;52.524;13.422;2023-03-04T04:18:03;5.60;99.90
5711;DHT22;61291;52.524;13.422;2023-03-04T04:20:29;5.60;99.90
5711;DHT22;61291;52.524;13.422;2023-03-04T04:22:54;5.70;99.90
5711;DHT22;61291;52.524;13.422;2023-03-04T04:25:20;5.70;99.90
5711;DHT22;61291;52.524;13.422;2023-03-04T04:27:45;5.70;99.90
5711;DHT22;61291;52.524;13.422;2023-03-04T04:30:11;5.60;99.90
5711;DHT22;61291;52.524;13.422;2023-03-04T04:32:37;5.70;99.90
5711;DHT22;61291;52.524;13.422;2023-03-04T04:35:02;5.70;99.90
5711;DHT22;61291;52.524;13.422;2023-03-04T04:37:28;5.70;99.90
5711;DHT22;61291;52.524;13.422;2023-03-04T04:39:53;5.80;99.90
5711;DHT22;61291;52.524;13.422;2023-03-04T04:42:20;5.80;99.90
5711;DHT22;61291;52.524;13.422;2023-03-04T04:44:46;5.80;99.90
5711;DHT22;61291;52.524;13.422;2023-03-04T04:47:11;5.80;99.90
5711;DHT22;61291;52.524;13.422;2023-03-04T04:49:37;5.80;99.90
5711;DHT22;61291;52.524;13.422;2023-03-04T04:52:02;5.80;99.90
5711;DHT22;61291;52.524;13.422;2023-03-04T04:54:28;5.80;99.90
5711;DHT22;61291;52.524;13.422;2023-03-04T04:56:53;5.90;99.90
5711;DHT22;61291;52.524;13.422;2023-03-04T04:59:19;5.90;99.90
5711;DHT22;61291;52.524;13.422;2023-03-04T05:01:44;5.90;99.90
5711;DHT22;61291;52.524;13.422;2023-03-04T05:04:10;5.90;99.90
5711;DHT22;61291;52.524;13.422;2023-03-04T05:06:36;5.90;99.90
5711;DHT22;61291;52.524;13.422;2023-03-04T05:09:01;5.90;99.90
5711;DHT22;61291;52.524;13.422;2023-03-04T05:11:27;5.90;99.90
5711;DHT22;61291;52.524;13.422;2023-03-04T05:13:52;6.00;99.90
5711;DHT22;61291;52.524;13.422;2023-03-04T05:16:18;6.00;99.90
5711;DHT22;61291;52.524;13.422;2023-03-04T05:18:43;6.00;99.90
5711;DHT22;61291;52.524;13.422;2023-03-04T05:21:09;6.00;99.90
5711;DHT22;61291;52.524;13.422;2023-03-04T05:23:37;6.00;99.90
5711;DHT22;61291;52.524;13.422;2023-03-04T05:26:05;6.00;99.90
5711;DHT22;61291;52.524;13.422;2023-03-04T05:28:32;6.00;99.90
5711;DHT22;61291;52.524;13.422;2023-03-04T05:30:58;6.00;99.90
5711;DHT22;61291;52.524;13.422;2023-03-04T05:33:23;6.00;99.90
5711;DHT22;61291;52.524;13.422;2023-03-04T05:35:49;6.10;99.90
5711;DHT22;61291;52.524;13.422;2023-03-04T05:38:17;6.10;99.90
5711;DHT22;61291;52.524;13.422;2023-03-04T05:40:43;6.10;99.90
5711;DHT22;61291;52.524;13.422;2023-03-04T05:43:09;6.10;99.90
5711;DHT22;61291;52.524;13.422;2023-03-04T05:45:35;6.20;99.90
5711;DHT22;61291;52.524;13.422;2023-03-04T05:48:01;6.10;99.90
5711;DHT22;61291;52.524;13.422;2023-03-04T05:50:27;6.10;99.90
5711;DHT22;61291;52.524;13.422;2023-03-04T05:52:53;6.10;99.90
5711;DHT22;61291;52.524;13.422;2023-03-04T05:55:19;6.20;99.90
5711;DHT22;61291;52.524;13.422;2023-03-04T05:57:46;6.20;99.90
5711;DHT22;61291;52.524;13.422;2023-03-04T06:00:12;6.20;99.90
5711;DHT22;61291;52.524;13.422;2023-03-04T06:02:40;6.20;99.90
5711;DHT22;61291;52.524;13.422;2023-03-04T06:05:06;6.30;99.90
5711;DHT22;61291;52.524;13.422;2023-03-04T06:07:32;6.30;99.90
5711;DHT22;61291;52.524;13.422;2023-03-04T06:09:58;6.30;99.90
5711;DHT22;61291;52.524;13.422;2023-03-04T06:12:23;6.30;99.90
5711;DHT22;61291;52.524;13.422;2023-03-04T06:14:49;6.30;99.90
5711;DHT22;61291;52.524;13.422;2023-03-04T06:17:15;6.30;99.90
5711;DHT22;61291;52.524;13.422;2023-03-04T06:19:40;6.30;99.90
5711;DHT22;61291;52.524;13.422;2023-03-04T06:22:06;6.30;99.90
5711;DHT22;61291;52.524;13.422;2023-03-04T06:24:32;6.30;99.90
5711;DHT22;61291;52.524;13.422;2023-03-04T06:26:57;6.40;99.90
5711;DHT22;61291;52.524;13.422;2023-03-04T06:29:23;6.40;99.90
5711;DHT22;61291;52.524;13.422;2023-03-04T06:31:49;6.50;99.90
5711;DHT22;61291;52.524;13.422;2023-03-04T06:34:14;6.40;99.90
5711;DHT22;61291;52.524;13.422;2023-03-04T06:36:40;6.50;99.90
5711;DHT22;61291;52.524;13.422;2023-03-04T06:39:06;6.50;99.90
5711;DHT22;61291;52.524;13.422;2023-03-04T06:41:32;6.50;99.90
5711;DHT22;61291;52.524;13.422;2023-03-04T06:43:58;6.50;99.90
5711;DHT22;61291;52.524;13.422;2023-03-04T06:46:23;6.60;99.90
5711;DHT22;61291;52.524;13.422;2023-03-04T06:48:49;6.60;99.90
5711;DHT22;61291;52.524;13.422;2023-03-04T06:51:15;6.70;99.90
5711;DHT22;61291;52.524;13.422;2023-03-04T06:53:41;6.70;99.90
5711;DHT22;61291;52.524;13.422;2023-03-04T06:56:09;6.80;99.90
5711;DHT22;61291;52.524;13.422;2023-03-04T06:58:35;6.90;99.90
5711;DHT22;61291;52.524;13.422;2023-03-04T07:01:26;6.90;99.90
5711;DHT22;61291;52.524;13.422;2023-03-04T07:03:53;6.90;99.90
5711;DHT22;61291;52.524;13.422;2023-03-04T07:06:21;7.00;99.90
5711;DHT22;61291;52.524;13.422;2023-03-04T07:08:47;7.10;99.90
5711;DHT22;61291;52.524;13.422;2023-03-04T07:11:13;7.20;99.90
5711;DHT22;61291;52.524;13.422;2023-03-04T07:13:39;7.20;99.90
5711;DHT22;61291;52.524;13.422;2023-03-04T07:16:08;7.20;99.90
5711;DHT22;61291;52.524;13.422;2023-03-04T07:18:35;7.10;99.90
5711;DHT22;61291;52.524;13.422;2023-03-04T07:21:00;7.00;99.90
5711;DHT22;61291;52.524;13.422;2023-03-04T07:23:26;6.90;99.90
5711;DHT22;61291;52.524;13.422;2023-03-04T07:25:52;6.80;99.90
5711;DHT22;61291;52.524;13.422;2023-03-04T07:28:17;6.80;99.90
5711;DHT22;61291;52.524;13.422;2023-03-04T07:30:43;6.90;99.90
5711;DHT22;61291;52.524;13.422;2023-03-04T07:33:09;6.90;99.90
5711;DHT22;61291;52.524;13.422;2023-03-04T07:35:35;6.90;99.90
5711;DHT22;61291;52.524;13.422;2023-03-04T07:38:00;7.10;99.90
5711;DHT22;61291;52.524;13.422;2023-03-04T07:40:26;7.20;99.90
5711;DHT22;61291;52.524;13.422;2023-03-04T07:42:53;7.30;99.90
5711;DHT22;61291;52.524;13.422;2023-03-04T07:45:19;7.40;99.90
5711;DHT22;61291;52.524;13.422;2023-03-04T07:47:44;7.40;99.90
5711;DHT22;61291;52.524;13.422;2023-03-04T07:50:11;7.40;99.90
5711;DHT22;61291;52.524;13.422;2023-03-04T07:52:37;7.50;99.90
5711;DHT22;61291;52.524;13.422;2023-03-04T07:55:03;7.70;99.90
5711;DHT22;61291;52.524;13.422;2023-03-04T07:57:29;7.80;99.90
5711;DHT22;61291;52.524;13.422;2023-03-04T07:59:54;8.00;99.90
5711;DHT22;61291;52.524;13.422;2023-03-04T08:02:20;8.10;99.90
5711;DHT22;61291;52.524;13.422;2023-03-04T08:04:46;8.00;99.90
5711;DHT22;61291;52.524;13.422;2023-03-04T08:07:11;8.10;99.90
5711;DHT22;61291;52.524;13.422;2023-03-04T08:09:37;8.30;99.90
5711;DHT22;61291;52.524;13.422;2023-03-04T08:12:02;8.40;99.90
5711;DHT22;61291;52.524;13.422;2023-03-04T08:14:28;8.60;99.90
5711;DHT22;61291;52.524;13.422;2023-03-04T08:16:53;8.50;99.90
5711;DHT22;61291;52.524;13.422;2023-03-04T08:19:19;8.50;99.90
5711;DHT22;61291;52.524;13.422;2023-03-04T08:21:44;8.60;99.90
5711;DHT22;61291;52.524;13.422;2023-03-04T08:24:10;8.60;99.90
5711;DHT22;61291;52.524;13.422;2023-03-04T08:26:39;8.50;99.90
5711;DHT22;61291;52.524;13.422;2023-03-04T08:29:10;8.30;99.90
5711;DHT22;61291;52.524;13.422;2023-03-04T08:31:36;8.30;99.90
5711;DHT22;61291;52.524;13.422;2023-03-04T08:34:03;8.40;99.90
5711;DHT22;61291;52.524;13.422;2023-03-04T08:36:29;8.20;99.90
5711;DHT22;61291;52.524;13.422;2023-03-04T08:38:54;8.30;99.90
5711;DHT22;61291;52.524;13.422;2023-03-04T08:41:20;8.40;99.90
5711;DHT22;61291;52.524;13.422;2023-03-04T08:43:45;8.40;99.90
5711;DHT22;61291;52.524;13.422;2023-03-04T08:46:11;8.60;99.90
5711;DHT22;61291;52.524;13.422;2023-03-04T08:48:37;8.70;99.90
5711;DHT22;61291;52.524;13.422;2023-03-04T08:51:11;8.80;99.90
5711;DHT22;61291;52.524;13.422;2023-03-04T08:53:37;9.00;99.90
5711;DHT22;61291;52.524;13.422;2023-03-04T08:56:04;9.00;99.90
5711;DHT22;61291;52.524;13.422;2023-03-04T08:58:30;8.90;99.90
5711;DHT22;61291;52.524;13.422;2023-03-04T09:00:58;9.00;99.90
5711;DHT22;61291;52.524;13.422;2023-03-04T09:03:24;9.20;99.90
5711;DHT22;61291;52.524;13.422;2023-03-04T09:05:49;9.20;99.90
5711;DHT22;61291;52.524;13.422;2023-03-04T09:08:15;9.20;99.90
5711;DHT22;61291;52.524;13.422;2023-03-04T09:10:41;9.50;99.90
5711;DHT22;61291;52.524;13.422;2023-03-04T09:13:07;9.60;99.90
5711;DHT22;61291;52.524;13.422;2023-03-04T09:15:36;9.90;99.90
5711;DHT22;61291;52.524;13.422;2023-03-04T09:18:03;9.80;99.90
5711;DHT22;61291;52.524;13.422;2023-03-04T09:20:30;9.90;99.90
5711;DHT22;61291;52.524;13.422;2023-03-04T09:22:56;10.30;99.90
5711;DHT22;61291;52.524;13.422;2023-03-04T09:25:21;10.60;99.90
5711;DHT22;61291;52.524;13.422;2023-03-04T09:27:47;10.30;99.90
5711;DHT22;61291;52.524;13.422;2023-03-04T09:30:12;10.30;99.90
5711;DHT22;61291;52.524;13.422;2023-03-04T09:32:38;10.10;99.90
5711;DHT22;61291;52.524;13.422;2023-03-04T09:35:06;10.00;99.90
5711;DHT22;61291;52.524;13.422;2023-03-04T09:37:33;9.80;99.90
5711;DHT22;61291;52.524;13.422;2023-03-04T09:39:58;9.80;99.90
5711;DHT22;61291;52.524;13.422;2023-03-04T09:42:27;9.60;99.90
5711;DHT22;61291;52.524;13.422;2023-03-04T09:44:54;9.60;99.90
5711;DHT22;61291;52.524;13.422;2023-03-04T09:47:22;9.60;99.90
5711;DHT22;61291;52.524;13.422;2023-03-04T09:49:56;9.60;99.90
5711;DHT22;61291;52.524;13.422;2023-03-04T09:52:36;9.50;99.90
5711;DHT22;61291;52.524;13.422;2023-03-04T10:00:43;9.60;99.90
5711;DHT22;61291;52.524;13.422;2023-03-04T10:03:11;9.70;99.90
5711;DHT22;61291;52.524;13.422;2023-03-04T10:05:54;9.10;99.90
5711;DHT22;61291;52.524;13.422;2023-03-04T10:11:26;8.80;99.90
5711;DHT22;61291;52.524;13.422;2023-03-04T10:14:22;9.00;99.90
5711;DHT22;61291;52.524;13.422;2023-03-04T10:22:31;9.70;99.90
5711;DHT22;61291;52.524;13.422;2023-03-04T10:24:59;9.50;99.90
5711;DHT22;61291;52.524;13.422;2023-03-04T10:27:26;9.30;99.90
5711;DHT22;61291;52.524;13.422;2023-03-04T10:29:55;8.90;99.90
5711;DHT22;61291;52.524;13.422;2023-03-04T10:32:22;9.20;99.90
5711;DHT22;61291;52.524;13.422;2023-03-04T10:34:48;9.40;99.90
5711;DHT22;61291;52.524;13.422;2023-03-04T10:37:13;9.20;99.90
5711;DHT22;61291;52.524;13.422;2023-03-04T10:39:42;9.30;99.90
5711;DHT22;61291;52.524;13.422;2023-03-04T10:44:58;9.90;99.90
5711;DHT22;61291;52.524;13.422;2023-03-04T10:47:26;10.00;99.90
5711;DHT22;61291;52.524;13.422;2023-03-04T10:49:54;10.00;99.90
5711;DHT22;61291;52.524;13.422;2023-03-04T10:52:30;10.20;99.90
5711;DHT22;61291;52.524;13.422;2023-03-04T10:55:05;10.00;99.90
5711;DHT22;61291;52.524;13.422;2023-03-04T10:57:37;9.70;99.90
5711;DHT22;61291;52.524;13.422;2023-03-04T11:00:22;9.30;99.90
5711;DHT22;61291;52.524;13.422;2023-03-04T11:02:48;8.90;99.90
5711;DHT22;61291;52.524;13.422;2023-03-04T11:07:48;9.30;99.90
5711;DHT22;61291;52.524;13.422;2023-03-04T11:10:21;9.40;99.90
5711;DHT22;61291;52.524;13.422;2023-03-04T11:13:02;9.20;99.90
5711;DHT22;61291;52.524;13.422;2023-03-04T11:15:54;9.10;99.90
5711;DHT22;61291;52.524;13.422;2023-03-04T11:18:51;9.50;99.90
5711;DHT22;61291;52.524;13.422;2023-03-04T11:21:24;9.50;99.90
5711;DHT22;61291;52.524;13.422;2023-03-04T11:23:56;9.80;99.90
5711;DHT22;61291;52.524;13.422;2023-03-04T11:31:31;9.80;99.90
5711;DHT22;61291;52.524;13.422;2023-03-04T11:34:23;9.60;99.90
5711;DHT22;61291;52.524;13.422;2023-03-04T11:37:07;9.80;99.90
5711;DHT22;61291;52.524;13.422;2023-03-04T11:39:56;10.20;99.90
5711;DHT22;61291;52.524;13.422;2023-03-04T11:42:40;10.90;99.90
5711;DHT22;61291;52.524;13.422;2023-03-04T11:45:39;10.30;99.90
5711;DHT22;61291;52.524;13.422;2023-03-04T11:48:34;10.10;99.90
5711;DHT22;61291;52.524;13.422;2023-03-04T11:51:09;9.80;99.90
5711;DHT22;61291;52.524;13.422;2023-03-04T11:53:53;9.50;99.90
5711;DHT22;61291;52.524;13.422;2023-03-04T11:56:35;9.80;99.90
5711;DHT22;61291;52.524;13.422;2023-03-04T12:01:58;9.40;99.90
5711;DHT22;61291;52.524;13.422;2023-03-04T12:04:34;9.40;99.90
5711;DHT22;61291;52.524;13.422;2023-03-04T12:07:08;9.40;99.90
5711;DHT22;61291;52.524;13.422;2023-03-04T12:10:03;9.30;99.90
5711;DHT22;61291;52.524;13.422;2023-03-04T12:15:57;9.20;99.90
5711;DHT22;61291;52.524;13.422;2023-03-04T12:18:46;9.50;99.90
5711;DHT22;61291;52.524;13.422;2023-03-04T12:24:18;10.20;99.90
5711;DHT22;61291;52.524;13.422;2023-03-04T12:26:50;10.00;99.60
5711;DHT22;61291;52.524;13.422;2023-03-04T12:29:41;10.30;99.80
5711;DHT22;61291;52.524;13.422;2023-03-04T12:35:27;9.60;99.00
5711;DHT22;61291;52.524;13.422;2023-03-04T12:38:11;10.30;98.80
5711;DHT22;61291;52.524;13.422;2023-03-04T12:43:55;9.70;99.30
5711;DHT22;61291;52.524;13.422;2023-03-04T12:52:29;9.80;99.00
5711;DHT22;61291;52.524;13.422;2023-03-04T12:55:02;9.60;98.40
5711;DHT22;61291;52.524;13.422;2023-03-04T12:57:28;10.00;98.10
5711;DHT22;61291;52.524;13.422;2023-03-04T13:00:29;10.10;97.90
5711;DHT22;61291;52.524;13.422;2023-03-04T13:03:10;10.60;97.90
5711;DHT22;61291;52.524;13.422;2023-03-04T13:19:41;9.80;97.50
5711;DHT22;61291;52.524;13.422;2023-03-04T13:24:51;9.30;98.00
5711;DHT22;61291;52.524;13.422;2023-03-04T13:27:46;9.40;97.90
5711;DHT22;61291;52.524;13.422;2023-03-04T13:38:30;9.10;98.20
5711;DHT22;61291;52.524;13.422;2023-03-04T13:41:19;9.30;98.10
5711;DHT22;61291;52.524;13.422;2023-03-04T13:43:47;8.70;97.90
5711;DHT22;61291;52.524;13.422;2023-03-04T13:51:41;9.00;98.30
5711;DHT22;61291;52.524;13.422;2023-03-04T13:54:30;9.20;98.10
5711;DHT22;61291;52.524;13.422;2023-03-04T13:59:45;8.60;98.20
5711;DHT22;61291;52.524;13.422;2023-03-04T14:02:18;8.50;98.20
5711;DHT22;61291;52.524;13.422;2023-03-04T14:04:56;8.80;98.00
5711;DHT22;61291;52.524;13.422;2023-03-04T14:07:33;8.70;97.80
5711;DHT22;61291;52.524;13.422;2023-03-04T14:12:27;8.30;98.00
5711;DHT22;61291;52.524;13.422;2023-03-04T14:14:57;8.20;98.00
5711;DHT22;61291;52.524;13.422;2023-03-04T14:17:27;8.30;98.00
5711;DHT22;61291;52.524;13.422;2023-03-04T14:19:54;8.20;98.30
5711;DHT22;61291;52.524;13.422;2023-03-04T14:22:29;8.30;98.30
5711;DHT22;61291;52.524;13.422;2023-03-04T14:24:56;8.10;98.50
5711;DHT22;61291;52.524;13.422;2023-03-04T14:27:22;8.30;98.60
5711;DHT22;61291;52.524;13.422;2023-03-04T14:29:55;8.40;98.50
5711;DHT22;61291;52.524;13.422;2023-03-04T14:32:22;8.30;98.40
5711;DHT22;61291;52.524;13.422;2023-03-04T14:34:49;8.20;98.50
5711;DHT22;61291;52.524;13.422;2023-03-04T14:37:23;7.70;98.90
5711;DHT22;61291;52.524;13.422;2023-03-04T14:39:54;7.70;99.10
5711;DHT22;61291;52.524;13.422;2023-03-04T14:42:23;7.60;99.20
5711;DHT22;61291;52.524;13.422;2023-03-04T14:44:52;7.60;99.20
5711;DHT22;61291;52.524;13.422;2023-03-04T14:47:35;7.60;99.40
5711;DHT22;61291;52.524;13.422;2023-03-04T14:50:12;7.70;99.50
5711;DHT22;61291;52.524;13.422;2023-03-04T14:52:41;7.60;99.50
5711;DHT22;61291;52.524;13.422;2023-03-04T14:57:40;7.50;99.70
5711;DHT22;61291;52.524;13.422;2023-03-04T15:02:47;7.60;99.90
5711;DHT22;61291;52.524;13.422;2023-03-04T15:05:21;7.60;99.90
5711;DHT22;61291;52.524;13.422;2023-03-04T15:07:53;7.70;99.90
5711;DHT22;61291;52.524;13.422;2023-03-04T15:10:26;7.80;99.90
5711;DHT22;61291;52.524;13.422;2023-03-04T15:12:57;7.80;99.80
5711;DHT22;61291;52.524;13.422;2023-03-04T15:18:23;8.10;99.50
5711;DHT22;61291;52.524;13.422;2023-03-04T15:21:04;8.30;99.00
5711;DHT22;61291;52.524;13.422;2023-03-04T15:23:31;8.10;98.70
5711;DHT22;61291;52.524;13.422;2023-03-04T15:26:02;7.90;98.50
5711;DHT22;61291;52.524;13.422;2023-03-04T15:28:36;7.90;98.50
5711;DHT22;61291;52.524;13.422;2023-03-04T15:31:03;7.90;98.40
5711;DHT22;61291;52.524;13.422;2023-03-04T15:33:29;8.10;98.30
5711;DHT22;61291;52.524;13.422;2023-03-04T15:35:59;8.00;98.30
5711;DHT22;61291;52.524;13.422;2023-03-04T15:38:27;8.00;98.30
5711;DHT22;61291;52.524;13.422;2023-03-04T15:40:54;7.90;98.30
5711;DHT22;61291;52.524;13.422;2023-03-04T15:43:21;7.80;98.00
5711;DHT22;61291;52.524;13.422;2023-03-04T15:45:48;7.70;98.20
5711;DHT22;61291;52.524;13.422;2023-03-04T15:48:15;7.80;98.30
5711;DHT22;61291;52.524;13.422;2023-03-04T15:50:56;7.80;98.30
5711;DHT22;61291;52.524;13.422;2023-03-04T15:53:30;7.60;98.40
5711;DHT22;61291;52.524;13.422;2023-03-04T15:55:57;7.50;98.50
5711;DHT22;61291;52.524;13.422;2023-03-04T15:58:23;7.40;98.70
5711;DHT22;61291;52.524;13.422;2023-03-04T16:00:49;7.30;98.70
5711;DHT22;61291;52.524;13.422;2023-03-04T16:03:16;7.30;98.80
5711;DHT22;61291;52.524;13.422;2023-03-04T16:05:44;7.30;98.80
5711;DHT22;61291;52.524;13.422;2023-03-04T16:08:15;7.20;98.80
5711;DHT22;61291;52.524;13.422;2023-03-04T16:10:42;7.10;98.80
5711;DHT22;61291;52.524;13.422;2023-03-04T16:13:13;7.20;98.90
5711;DHT22;61291;52.524;13.422;2023-03-04T16:15:39;7.10;98.90
5711;DHT22;61291;52.524;13.422;2023-03-04T16:18:04;7.10;98.90
5711;DHT22;61291;52.524;13.422;2023-03-04T16:20:32;7.00;98.90
5711;DHT22;61291;52.524;13.422;2023-03-04T16:22:59;6.90;99.00
5711;DHT22;61291;52.524;13.422;2023-03-04T16:25:25;6.90;99.00
5711;DHT22;61291;52.524;13.422;2023-03-04T16:27:52;6.80;98.90
5711;DHT22;61291;52.524;13.422;2023-03-04T16:30:23;6.70;98.80
5711;DHT22;61291;52.524;13.422;2023-03-04T16:32:49;6.70;98.80
5711;DHT22;61291;52.524;13.422;2023-03-04T16:35:15;6.70;98.80
5711;DHT22;61291;52.524;13.422;2023-03-04T16:37:42;6.60;98.80
5711;DHT22;61291;52.524;13.422;2023-03-04T16:40:14;6.60;98.90
5711;DHT22;61291;52.524;13.422;2023-03-04T16:42:40;6.60;98.90
5711;DHT22;61291;52.524;13.422;2023-03-04T16:45:13;6.50;98.90
5711;DHT22;61291;52.524;13.422;2023-03-04T16:47:39;6.60;98.90
5711;DHT22;61291;52.524;13.422;2023-03-04T16:50:05;6.50;98.90
5711;DHT22;61291;52.524;13.422;2023-03-04T16:52:31;6.50;98.90
5711;DHT22;61291;52.524;13.422;2023-03-04T16:54:57;6.50;98.90
5711;DHT22;61291;52.524;13.422;2023-03-04T16:57:23;6.50;98.90
5711;DHT22;61291;52.524;13.422;2023-03-04T16:59:48;6.50;98.80
5711;DHT22;61291;52.524;13.422;2023-03-04T17:02:16;6.40;98.80
5711;DHT22;61291;52.524;13.422;2023-03-04T17:04:43;6.40;98.70
5711;DHT22;61291;52.524;13.422;2023-03-04T17:07:09;6.40;98.70
5711;DHT22;61291;52.524;13.422;2023-03-04T17:09:35;6.40;98.70
5711;DHT22;61291;52.524;13.422;2023-03-04T17:12:05;6.40;98.80
5711;DHT22;61291;52.524;13.422;2023-03-04T17:14:31;6.40;98.80
5711;DHT22;61291;52.524;13.422;2023-03-04T17:16:57;6.30;98.80
5711;DHT22;61291;52.524;13.422;2023-03-04T17:19:22;6.30;98.80
5711;DHT22;61291;52.524;13.422;2023-03-04T17:21:47;6.30;98.90
5711;DHT22;61291;52.524;13.422;2023-03-04T17:24:13;6.30;99.00